Huvudsida
METAR-TAF:

METAR-TAF

Flygplatser :

Savoonga, Alaska, USA

latitud: 63-41N, longitud: 170-30W, höjd: 16 m

Aktuellt väderrapport

Denna rapport gjordes för 6 timmar och 36 minuter sedan, klockan 22:56 UTC
Vind 8 kt från ost/nordost
Temperatur 14°C
Fuktighet 72%
Tryck 1021 hPa
Sikt: 16.1 km
Klar himmel

METAR: PASA 222256Z AUTO 06008KT 10SM CLR 14/09 A3016 RMK AO2 SLP213 T01390089

Tid: 21:32 (05:32 UTC)


TAF: saknas

Aktuella väderrapporter och prognoser från 4000 flygplatser (METAR- och TAF-rapporter).

De tillgängliga stationerna syns som gula och röda prickar på kartan.

För musen över prickarna för att se namnen på stationerna.

Klicka sedan för att få väderrapporter och prognoser.

För att ändra kartan: Klicka på de gröna knapparna med ett svart kors på för att zooma in; den gröna knappen med ett streck på för att zooma ut; eller på de gröna pilarna för angränsande kartor.


METAR-TAF: